sensor_id;sensor_type;location;lat;lon;timestamp;pressure;altitude;pressure_sealevel;temperature;humidity
79527;BME280;68974;47.754;-3.364;2023-12-20T00:01:31;102786.88;;;8.54;74.52
79527;BME280;68974;47.754;-3.364;2023-12-20T00:03:57;102773.38;;;8.52;74.86
79527;BME280;68974;47.754;-3.364;2023-12-20T00:06:22;102779.31;;;8.49;74.43
79527;BME280;68974;47.754;-3.364;2023-12-20T00:08:48;102781.66;;;8.39;73.94
79527;BME280;68974;47.754;-3.364;2023-12-20T00:11:13;102785.28;;;8.33;74.33
79527;BME280;68974;47.754;-3.364;2023-12-20T00:13:39;102787.16;;;8.26;74.19
79527;BME280;68974;47.754;-3.364;2023-12-20T00:16:04;102790.56;;;8.15;74.62
79527;BME280;68974;47.754;-3.364;2023-12-20T00:18:30;102800.47;;;8.09;75.01
79527;BME280;68974;47.754;-3.364;2023-12-20T00:20:55;102803.88;;;8.05;75.73
79527;BME280;68974;47.754;-3.364;2023-12-20T00:23:21;102810.81;;;8.01;76.04
79527;BME280;68974;47.754;-3.364;2023-12-20T00:25:48;102812.28;;;7.97;76.25
79527;BME280;68974;47.754;-3.364;2023-12-20T00:28:14;102820.09;;;7.93;76.52
79527;BME280;68974;47.754;-3.364;2023-12-20T00:30:39;102821.56;;;7.96;76.81
79527;BME280;68974;47.754;-3.364;2023-12-20T00:33:04;102812.69;;;8.07;76.76
79527;BME280;68974;47.754;-3.364;2023-12-20T00:35:30;102815.63;;;8.18;76.92
79527;BME280;68974;47.754;-3.364;2023-12-20T00:37:55;102816.47;;;8.19;76.71
79527;BME280;68974;47.754;-3.364;2023-12-20T00:40:21;102820.88;;;8.20;76.75
79527;BME280;68974;47.754;-3.364;2023-12-20T00:42:47;102816.88;;;8.22;76.52
79527;BME280;68974;47.754;-3.364;2023-12-20T00:45:13;102817.50;;;8.31;76.52
79527;BME280;68974;47.754;-3.364;2023-12-20T00:47:40;102822.75;;;8.39;76.02
79527;BME280;68974;47.754;-3.364;2023-12-20T00:50:06;102814.75;;;8.38;76.20
79527;BME280;68974;47.754;-3.364;2023-12-20T00:52:31;102814.53;;;8.33;75.78
79527;BME280;68974;47.754;-3.364;2023-12-20T00:54:57;102811.44;;;8.16;76.31
79527;BME280;68974;47.754;-3.364;2023-12-20T00:57:22;102816.47;;;8.12;76.36
79527;BME280;68974;47.754;-3.364;2023-12-20T00:59:48;102816.50;;;7.99;76.56
79527;BME280;68974;47.754;-3.364;2023-12-20T01:02:14;102816.50;;;7.99;77.20
79527;BME280;68974;47.754;-3.364;2023-12-20T01:04:39;102821.13;;;7.99;77.60
79527;BME280;68974;47.754;-3.364;2023-12-20T01:07:05;102807.25;;;7.94;77.79
79527;BME280;68974;47.754;-3.364;2023-12-20T01:09:30;102810.44;;;7.91;77.57
79527;BME280;68974;47.754;-3.364;2023-12-20T01:11:55;102815.25;;;7.82;77.62
79527;BME280;68974;47.754;-3.364;2023-12-20T01:14:21;102811.91;;;7.80;77.89
79527;BME280;68974;47.754;-3.364;2023-12-20T01:16:49;102817.81;;;7.77;78.10
79527;BME280;68974;47.754;-3.364;2023-12-20T01:19:15;102816.97;;;7.76;78.24
79527;BME280;68974;47.754;-3.364;2023-12-20T01:21:41;102816.13;;;7.69;78.26
79527;BME280;68974;47.754;-3.364;2023-12-20T01:24:06;102820.75;;;7.75;78.06
79527;BME280;68974;47.754;-3.364;2023-12-20T01:26:32;102824.13;;;7.71;78.46
79527;BME280;68974;47.754;-3.364;2023-12-20T01:28:57;102821.19;;;7.66;78.16
79527;BME280;68974;47.754;-3.364;2023-12-20T01:31:23;102825.78;;;7.78;77.91
79527;BME280;68974;47.754;-3.364;2023-12-20T01:33:48;102830.63;;;7.83;77.17
79527;BME280;68974;47.754;-3.364;2023-12-20T01:36:14;102821.97;;;7.93;77.36
79527;BME280;68974;47.754;-3.364;2023-12-20T01:38:39;102825.19;;;7.76;77.26
79527;BME280;68974;47.754;-3.364;2023-12-20T01:41:05;102822.03;;;7.66;77.61
79527;BME280;68974;47.754;-3.364;2023-12-20T01:43:30;102822.44;;;7.70;77.54
79527;BME280;68974;47.754;-3.364;2023-12-20T01:45:57;102824.56;;;7.61;78.02
79527;BME280;68974;47.754;-3.364;2023-12-20T01:48:24;102827.69;;;7.58;78.28
79527;BME280;68974;47.754;-3.364;2023-12-20T01:50:51;102828.31;;;7.73;78.09
79527;BME280;68974;47.754;-3.364;2023-12-20T01:53:17;102826.63;;;7.72;77.94
79527;BME280;68974;47.754;-3.364;2023-12-20T01:55:44;102831.66;;;7.82;77.56
79527;BME280;68974;47.754;-3.364;2023-12-20T01:58:11;102838.84;;;7.90;77.30
79527;BME280;68974;47.754;-3.364;2023-12-20T02:00:37;102838.81;;;8.09;76.59
79527;BME280;68974;47.754;-3.364;2023-12-20T02:03:03;102842.59;;;8.02;76.31
79527;BME280;68974;47.754;-3.364;2023-12-20T02:05:30;102853.34;;;8.10;75.50
79527;BME280;68974;47.754;-3.364;2023-12-20T02:07:56;102839.25;;;8.00;75.89
79527;BME280;68974;47.754;-3.364;2023-12-20T02:10:22;102828.69;;;8.03;76.54
79527;BME280;68974;47.754;-3.364;2023-12-20T02:12:48;102837.13;;;8.15;76.63
79527;BME280;68974;47.754;-3.364;2023-12-20T02:15:13;102833.34;;;8.03;76.72
79527;BME280;68974;47.754;-3.364;2023-12-20T02:17:39;102836.91;;;7.97;76.99
79527;BME280;68974;47.754;-3.364;2023-12-20T02:20:05;102843.03;;;7.99;77.24
79527;BME280;68974;47.754;-3.364;2023-12-20T02:22:31;102839.22;;;8.06;78.05
79527;BME280;68974;47.754;-3.364;2023-12-20T02:24:57;102846.59;;;8.06;78.43
79527;BME280;68974;47.754;-3.364;2023-12-20T02:27:23;102843.03;;;8.05;78.76
79527;BME280;68974;47.754;-3.364;2023-12-20T02:29:50;102835.03;;;7.97;79.53
79527;BME280;68974;47.754;-3.364;2023-12-20T02:32:17;102846.81;;;7.98;79.89
79527;BME280;68974;47.754;-3.364;2023-12-20T02:34:43;102844.72;;;7.93;80.03
79527;BME280;68974;47.754;-3.364;2023-12-20T02:37:08;102850.81;;;7.89;80.54
79527;BME280;68974;47.754;-3.364;2023-12-20T02:39:33;102852.75;;;7.81;80.90
79527;BME280;68974;47.754;-3.364;2023-12-20T02:41:59;102851.88;;;7.74;81.09
79527;BME280;68974;47.754;-3.364;2023-12-20T02:44:24;102855.06;;;7.71;81.22
79527;BME280;68974;47.754;-3.364;2023-12-20T02:46:50;102846.44;;;7.61;81.56
79527;BME280;68974;47.754;-3.364;2023-12-20T02:49:15;102847.03;;;7.63;81.66
79527;BME280;68974;47.754;-3.364;2023-12-20T02:51:41;102843.47;;;7.63;81.72
79527;BME280;68974;47.754;-3.364;2023-12-20T02:54:07;102848.97;;;7.56;81.72
79527;BME280;68974;47.754;-3.364;2023-12-20T02:56:33;102842.63;;;7.49;81.95
79527;BME280;68974;47.754;-3.364;2023-12-20T02:58:59;102846.84;;;7.52;81.98
79527;BME280;68974;47.754;-3.364;2023-12-20T03:01:24;102845.59;;;7.48;81.98
79527;BME280;68974;47.754;-3.364;2023-12-20T03:03:50;102851.88;;;7.48;82.04
79527;BME280;68974;47.754;-3.364;2023-12-20T03:06:17;102852.75;;;7.42;81.52
79527;BME280;68974;47.754;-3.364;2023-12-20T03:08:43;102848.09;;;7.36;81.83
79527;BME280;68974;47.754;-3.364;2023-12-20T03:11:09;102843.66;;;7.35;81.56
79527;BME280;68974;47.754;-3.364;2023-12-20T03:13:34;102831.72;;;7.43;81.12
79527;BME280;68974;47.754;-3.364;2023-12-20T03:16:00;102836.34;;;7.42;81.03
79527;BME280;68974;47.754;-3.364;2023-12-20T03:18:25;102846.41;;;7.68;80.68
79527;BME280;68974;47.754;-3.364;2023-12-20T03:20:53;102853.59;;;7.75;80.62
79527;BME280;68974;47.754;-3.364;2023-12-20T03:23:18;102858.22;;;7.81;80.22
79527;BME280;68974;47.754;-3.364;2023-12-20T03:25:44;102859.44;;;7.72;80.25
79527;BME280;68974;47.754;-3.364;2023-12-20T03:28:09;102845.56;;;7.67;80.35
79527;BME280;68974;47.754;-3.364;2023-12-20T03:30:35;102845.78;;;7.59;80.92
79527;BME280;68974;47.754;-3.364;2023-12-20T03:33:00;102841.38;;;7.58;81.35
79527;BME280;68974;47.754;-3.364;2023-12-20T03:35:26;102844.31;;;7.63;81.94
79527;BME280;68974;47.754;-3.364;2023-12-20T03:37:51;102852.72;;;7.68;81.91
79527;BME280;68974;47.754;-3.364;2023-12-20T03:40:17;102849.78;;;7.70;82.29
79527;BME280;68974;47.754;-3.364;2023-12-20T03:42:42;102851.69;;;7.69;82.04
79527;BME280;68974;47.754;-3.364;2023-12-20T03:45:08;102842.22;;;7.65;82.37
79527;BME280;68974;47.754;-3.364;2023-12-20T03:47:34;102836.53;;;7.73;82.31
79527;BME280;68974;47.754;-3.364;2023-12-20T03:49:59;102842.00;;;7.80;82.40
79527;BME280;68974;47.754;-3.364;2023-12-20T03:52:25;102830.84;;;7.68;82.50
79527;BME280;68974;47.754;-3.364;2023-12-20T03:54:50;102837.59;;;7.66;82.98
79527;BME280;68974;47.754;-3.364;2023-12-20T03:57:15;102829.16;;;7.67;83.18
79527;BME280;68974;47.754;-3.364;2023-12-20T03:59:41;102835.25;;;7.63;83.64
79527;BME280;68974;47.754;-3.364;2023-12-20T04:02:06;102828.75;;;7.64;83.67
79527;BME280;68974;47.754;-3.364;2023-12-20T04:04:32;102827.06;;;7.56;84.42
79527;BME280;68974;47.754;-3.364;2023-12-20T04:06:57;102830.84;;;7.55;84.70
79527;BME280;68974;47.754;-3.364;2023-12-20T04:09:23;102829.56;;;7.58;84.92
79527;BME280;68974;47.754;-3.364;2023-12-20T04:11:48;102816.75;;;7.58;85.48
79527;BME280;68974;47.754;-3.364;2023-12-20T04:14:13;102817.81;;;7.70;84.98
79527;BME280;68974;47.754;-3.364;2023-12-20T04:16:39;102820.34;;;7.65;85.46
79527;BME280;68974;47.754;-3.364;2023-12-20T04:19:05;102822.84;;;7.73;85.12
79527;BME280;68974;47.754;-3.364;2023-12-20T04:21:30;102825.78;;;7.78;85.23
79527;BME280;68974;47.754;-3.364;2023-12-20T04:23:56;102827.47;;;7.86;85.05
79527;BME280;68974;47.754;-3.364;2023-12-20T04:26:22;102836.94;;;7.83;85.20
79527;BME280;68974;47.754;-3.364;2023-12-20T04:28:47;102840.09;;;7.74;84.92
79527;BME280;68974;47.754;-3.364;2023-12-20T04:31:13;102838.41;;;7.73;84.72
79527;BME280;68974;47.754;-3.364;2023-12-20T04:33:38;102834.44;;;7.62;85.04
79527;BME280;68974;47.754;-3.364;2023-12-20T04:36:04;102841.38;;;7.52;85.25
79527;BME280;68974;47.754;-3.364;2023-12-20T04:38:30;102834.22;;;7.44;85.53
79527;BME280;68974;47.754;-3.364;2023-12-20T04:40:55;102832.75;;;7.42;85.84
79527;BME280;68974;47.754;-3.364;2023-12-20T04:43:21;102831.91;;;7.41;85.68
79527;BME280;68974;47.754;-3.364;2023-12-20T04:45:46;102828.13;;;7.35;85.60
79527;BME280;68974;47.754;-3.364;2023-12-20T04:48:12;102835.50;;;7.42;85.05
79527;BME280;68974;47.754;-3.364;2023-12-20T04:50:37;102842.44;;;7.37;85.00
79527;BME280;68974;47.754;-3.364;2023-12-20T04:53:03;102850.38;;;7.26;85.15
79527;BME280;68974;47.754;-3.364;2023-12-20T04:55:28;102844.72;;;7.21;85.22
79527;BME280;68974;47.754;-3.364;2023-12-20T04:57:54;102841.53;;;7.11;85.31
79527;BME280;68974;47.754;-3.364;2023-12-20T05:00:20;102842.78;;;7.15;85.63
79527;BME280;68974;47.754;-3.364;2023-12-20T05:02:45;102840.88;;;7.09;85.23
79527;BME280;68974;47.754;-3.364;2023-12-20T05:05:11;102840.25;;;7.07;85.51
79527;BME280;68974;47.754;-3.364;2023-12-20T05:07:36;102841.09;;;7.14;85.64
79527;BME280;68974;47.754;-3.364;2023-12-20T05:10:03;102835.84;;;7.06;85.38
79527;BME280;68974;47.754;-3.364;2023-12-20T05:12:30;102841.56;;;7.17;84.93
79527;BME280;68974;47.754;-3.364;2023-12-20T05:14:56;102836.28;;;7.03;85.25
79527;BME280;68974;47.754;-3.364;2023-12-20T05:17:21;102837.75;;;6.99;85.43
79527;BME280;68974;47.754;-3.364;2023-12-20T05:19:47;102829.13;;;7.02;85.77
79527;BME280;68974;47.754;-3.364;2023-12-20T05:22:12;102838.31;;;6.94;85.55
79527;BME280;68974;47.754;-3.364;2023-12-20T05:24:38;102836.63;;;6.86;85.47
79527;BME280;68974;47.754;-3.364;2023-12-20T05:27:03;102840.41;;;6.85;86.17
79527;BME280;68974;47.754;-3.364;2023-12-20T05:29:29;102844.19;;;6.84;86.03
79527;BME280;68974;47.754;-3.364;2023-12-20T05:31:55;102853.88;;;6.87;86.24
79527;BME280;68974;47.754;-3.364;2023-12-20T05:34:20;102858.06;;;6.89;86.08
79527;BME280;68974;47.754;-3.364;2023-12-20T05:36:45;102856.00;;;6.91;86.36
79527;BME280;68974;47.754;-3.364;2023-12-20T05:39:11;102864.38;;;6.83;86.27
79527;BME280;68974;47.754;-3.364;2023-12-20T05:41:37;102870.22;;;6.80;86.38
79527;BME280;68974;47.754;-3.364;2023-12-20T05:44:02;102861.44;;;6.91;86.43
79527;BME280;68974;47.754;-3.364;2023-12-20T05:46:28;102861.03;;;6.88;86.02
79527;BME280;68974;47.754;-3.364;2023-12-20T05:48:53;102863.91;;;6.80;86.37
79527;BME280;68974;47.754;-3.364;2023-12-20T05:51:19;102874.88;;;6.86;86.45
79527;BME280;68974;47.754;-3.364;2023-12-20T05:53:44;102873.66;;;6.89;86.46
79527;BME280;68974;47.754;-3.364;2023-12-20T05:56:10;102871.72;;;6.89;86.03
79527;BME280;68974;47.754;-3.364;2023-12-20T05:58:36;102877.03;;;6.97;85.94
79527;BME280;68974;47.754;-3.364;2023-12-20T06:01:05;102875.75;;;6.93;86.17
79527;BME280;68974;47.754;-3.364;2023-12-20T06:03:30;102876.56;;;6.87;86.18
79527;BME280;68974;47.754;-3.364;2023-12-20T06:05:56;102872.34;;;6.85;86.62
79527;BME280;68974;47.754;-3.364;2023-12-20T06:08:22;102866.88;;;6.85;86.42
79527;BME280;68974;47.754;-3.364;2023-12-20T06:10:47;102878.22;;;6.82;86.70
79527;BME280;68974;47.754;-3.364;2023-12-20T06:13:13;102868.97;;;6.76;86.88
79527;BME280;68974;47.754;-3.364;2023-12-20T06:15:39;102875.69;;;6.80;86.86
79527;BME280;68974;47.754;-3.364;2023-12-20T06:18:05;102878.84;;;6.77;86.99
79527;BME280;68974;47.754;-3.364;2023-12-20T06:20:31;102877.38;;;6.81;86.87
79527;BME280;68974;47.754;-3.364;2023-12-20T06:22:57;102881.16;;;6.74;87.42
79527;BME280;68974;47.754;-3.364;2023-12-20T06:25:22;102882.00;;;6.81;87.02
79527;BME280;68974;47.754;-3.364;2023-12-20T06:27:48;102888.13;;;6.89;86.75
79527;BME280;68974;47.754;-3.364;2023-12-20T06:30:13;102894.66;;;6.88;86.52
79527;BME280;68974;47.754;-3.364;2023-12-20T06:32:39;102895.47;;;6.82;86.87
79527;BME280;68974;47.754;-3.364;2023-12-20T06:35:05;102900.88;;;6.76;87.02
79527;BME280;68974;47.754;-3.364;2023-12-20T06:37:30;102906.59;;;6.81;86.94
79527;BME280;68974;47.754;-3.364;2023-12-20T06:39:56;102904.47;;;6.76;87.28
79527;BME280;68974;47.754;-3.364;2023-12-20T06:42:22;102915.56;;;6.68;87.43
79527;BME280;68974;47.754;-3.364;2023-12-20T06:44:48;102911.81;;;6.69;87.54
79527;BME280;68974;47.754;-3.364;2023-12-20T06:47:13;102919.41;;;6.80;87.17
79527;BME280;68974;47.754;-3.364;2023-12-20T06:49:39;102916.03;;;6.78;87.13
79527;BME280;68974;47.754;-3.364;2023-12-20T06:52:05;102916.88;;;6.79;87.34
79527;BME280;68974;47.754;-3.364;2023-12-20T06:54:31;102915.16;;;6.71;87.20
79527;BME280;68974;47.754;-3.364;2023-12-20T06:56:59;102926.88;;;6.65;87.36
79527;BME280;68974;47.754;-3.364;2023-12-20T06:59:25;102932.34;;;6.65;87.25
79527;BME280;68974;47.754;-3.364;2023-12-20T07:01:51;102927.72;;;6.66;87.04
79527;BME280;68974;47.754;-3.364;2023-12-20T07:04:17;102932.81;;;6.69;87.38
79527;BME280;68974;47.754;-3.364;2023-12-20T07:06:45;102935.31;;;6.70;87.24
79527;BME280;68974;47.754;-3.364;2023-12-20T07:09:11;102925.66;;;6.68;87.33
79527;BME280;68974;47.754;-3.364;2023-12-20T07:11:38;102928.19;;;6.69;87.07
79527;BME280;68974;47.754;-3.364;2023-12-20T07:14:04;102926.88;;;6.65;87.06
79527;BME280;68974;47.754;-3.364;2023-12-20T07:16:29;102930.28;;;6.67;87.12
79527;BME280;68974;47.754;-3.364;2023-12-20T07:18:55;102931.06;;;6.61;87.07
79527;BME280;68974;47.754;-3.364;2023-12-20T07:21:21;102931.50;;;6.65;86.89
79527;BME280;68974;47.754;-3.364;2023-12-20T07:23:47;102931.91;;;6.62;86.79
79527;BME280;68974;47.754;-3.364;2023-12-20T07:26:12;102925.59;;;6.55;86.83
79527;BME280;68974;47.754;-3.364;2023-12-20T07:28:38;102926.44;;;6.62;86.76
79527;BME280;68974;47.754;-3.364;2023-12-20T07:31:03;102929.00;;;6.63;86.57
79527;BME280;68974;47.754;-3.364;2023-12-20T07:33:28;102926.50;;;6.68;86.50
79527;BME280;68974;47.754;-3.364;2023-12-20T07:35:54;102920.63;;;6.71;86.51
79527;BME280;68974;47.754;-3.364;2023-12-20T07:38:19;102922.28;;;6.66;86.38
79527;BME280;68974;47.754;-3.364;2023-12-20T07:40:45;102935.91;;;6.59;86.38
79527;BME280;68974;47.754;-3.364;2023-12-20T07:43:10;102926.41;;;6.55;86.80
79527;BME280;68974;47.754;-3.364;2023-12-20T07:45:36;102923.53;;;6.63;86.70
79527;BME280;68974;47.754;-3.364;2023-12-20T07:48:01;102926.03;;;6.65;86.60
79527;BME280;68974;47.754;-3.364;2023-12-20T07:50:27;102930.69;;;6.64;86.92
79527;BME280;68974;47.754;-3.364;2023-12-20T07:52:53;102929.00;;;6.63;86.70
79527;BME280;68974;47.754;-3.364;2023-12-20T07:55:18;102926.03;;;6.65;87.02
79527;BME280;68974;47.754;-3.364;2023-12-20T07:57:44;102920.63;;;6.71;86.83
79527;BME280;68974;47.754;-3.364;2023-12-20T08:00:10;102921.09;;;6.81;86.58
79527;BME280;68974;47.754;-3.364;2023-12-20T08:02:35;102919.81;;;6.77;87.03
79527;BME280;68974;47.754;-3.364;2023-12-20T08:05:01;102901.31;;;6.79;86.56
79527;BME280;68974;47.754;-3.364;2023-12-20T08:07:26;102915.59;;;6.75;87.12
79527;BME280;68974;47.754;-3.364;2023-12-20T08:09:52;102922.13;;;6.74;86.94
79527;BME280;68974;47.754;-3.364;2023-12-20T08:12:18;102925.09;;;6.79;86.80
79527;BME280;68974;47.754;-3.364;2023-12-20T08:14:43;102920.09;;;6.89;86.92
79527;BME280;68974;47.754;-3.364;2023-12-20T08:17:09;102921.75;;;6.83;86.76
79527;BME280;68974;47.754;-3.364;2023-12-20T08:19:34;102934.78;;;6.88;86.39
79527;BME280;68974;47.754;-3.364;2023-12-20T08:22:00;102926.38;;;6.89;86.66
79527;BME280;68974;47.754;-3.364;2023-12-20T08:24:25;102930.78;;;6.84;86.40
79527;BME280;68974;47.754;-3.364;2023-12-20T08:26:50;102920.75;;;6.97;86.65
79527;BME280;68974;47.754;-3.364;2023-12-20T08:29:16;102927.44;;;6.95;86.57
79527;BME280;68974;47.754;-3.364;2023-12-20T08:31:41;102916.97;;;6.99;86.89
79527;BME280;68974;47.754;-3.364;2023-12-20T08:34:07;102908.34;;;7.02;86.90
79527;BME280;68974;47.754;-3.364;2023-12-20T08:36:32;102909.00;;;7.10;86.67
79527;BME280;68974;47.754;-3.364;2023-12-20T08:38:58;102919.97;;;7.17;86.43
79527;BME280;68974;47.754;-3.364;2023-12-20T08:41:26;102911.16;;;7.21;86.02
79527;BME280;68974;47.754;-3.364;2023-12-20T08:43:51;102920.00;;;7.30;85.95
79527;BME280;68974;47.754;-3.364;2023-12-20T08:46:16;102925.66;;;7.28;85.99
79527;BME280;68974;47.754;-3.364;2023-12-20T08:48:42;102926.31;;;7.30;86.41
79527;BME280;68974;47.754;-3.364;2023-12-20T08:51:07;102938.13;;;7.37;86.36
79527;BME280;68974;47.754;-3.364;2023-12-20T08:53:33;102943.38;;;7.39;86.20
79527;BME280;68974;47.754;-3.364;2023-12-20T08:55:59;102941.91;;;7.50;86.16
79527;BME280;68974;47.754;-3.364;2023-12-20T08:58:27;102945.50;;;7.50;86.01
79527;BME280;68974;47.754;-3.364;2023-12-20T09:00:53;102938.16;;;7.97;90.19
79527;BME280;68974;47.754;-3.364;2023-12-20T09:03:18;102949.97;;;8.17;89.32
79527;BME280;68974;47.754;-3.364;2023-12-20T09:05:44;102944.91;;;8.14;86.39
79527;BME280;68974;47.754;-3.364;2023-12-20T09:08:09;102947.84;;;8.12;85.49
79527;BME280;68974;47.754;-3.364;2023-12-20T09:10:36;102953.78;;;8.16;85.03
79527;BME280;68974;47.754;-3.364;2023-12-20T09:13:02;102957.13;;;8.18;84.67
79527;BME280;68974;47.754;-3.364;2023-12-20T09:15:29;102957.13;;;8.18;84.60
79527;BME280;68974;47.754;-3.364;2023-12-20T09:17:55;102946.63;;;8.15;84.85
79527;BME280;68974;47.754;-3.364;2023-12-20T09:20:21;102950.84;;;8.11;84.72
79527;BME280;68974;47.754;-3.364;2023-12-20T09:22:48;102951.44;;;8.13;84.66
79527;BME280;68974;47.754;-3.364;2023-12-20T09:25:14;102962.16;;;8.21;84.48
79527;BME280;68974;47.754;-3.364;2023-12-20T09:27:41;102964.50;;;8.24;84.31
79527;BME280;68974;47.754;-3.364;2023-12-20T09:30:07;102965.97;;;8.26;84.06
79527;BME280;68974;47.754;-3.364;2023-12-20T09:32:33;102969.78;;;8.32;84.03
79527;BME280;68974;47.754;-3.364;2023-12-20T09:34:58;102966.44;;;8.30;84.45
79527;BME280;68974;47.754;-3.364;2023-12-20T09:37:27;102953.56;;;8.44;84.38
79527;BME280;68974;47.754;-3.364;2023-12-20T09:39:53;102947.41;;;8.61;83.71
79527;BME280;68974;47.754;-3.364;2023-12-20T09:42:39;102945.69;;;8.74;83.13
79527;BME280;68974;47.754;-3.364;2023-12-20T09:45:08;102942.72;;;8.82;83.14
79527;BME280;68974;47.754;-3.364;2023-12-20T09:47:35;102946.69;;;8.92;82.58
79527;BME280;68974;47.754;-3.364;2023-12-20T09:50:02;102945.19;;;8.96;82.62
79527;BME280;68974;47.754;-3.364;2023-12-20T09:52:30;102942.63;;;9.08;82.32
79527;BME280;68974;47.754;-3.364;2023-12-20T09:54:57;102949.72;;;9.22;81.95
79527;BME280;68974;47.754;-3.364;2023-12-20T09:57:23;102938.78;;;9.16;82.09
79527;BME280;68974;47.754;-3.364;2023-12-20T09:59:48;102933.47;;;9.21;82.23
79527;BME280;68974;47.754;-3.364;2023-12-20T10:02:14;102954.94;;;9.30;81.55
79527;BME280;68974;47.754;-3.364;2023-12-20T10:04:46;102944.19;;;9.29;82.05
79527;BME280;68974;47.754;-3.364;2023-12-20T10:07:15;102949.75;;;9.16;82.07
79527;BME280;68974;47.754;-3.364;2023-12-20T10:09:41;102960.31;;;9.12;82.60
79527;BME280;68974;47.754;-3.364;2023-12-20T10:12:07;102956.53;;;9.13;83.04
79527;BME280;68974;47.754;-3.364;2023-12-20T10:14:33;102976.91;;;9.24;82.57
79527;BME280;68974;47.754;-3.364;2023-12-20T10:17:05;102973.72;;;9.33;82.33
79527;BME280;68974;47.754;-3.364;2023-12-20T10:19:32;102968.56;;;9.43;82.28
79527;BME280;68974;47.754;-3.364;2023-12-20T10:21:59;102975.09;;;9.49;82.51
79527;BME280;68974;47.754;-3.364;2023-12-20T10:24:25;102976.09;;;9.61;81.61
79527;BME280;68974;47.754;-3.364;2023-12-20T10:27:04;102964.97;;;9.81;81.16
79527;BME280;68974;47.754;-3.364;2023-12-20T10:29:36;102967.28;;;9.84;80.65
79527;BME280;68974;47.754;-3.364;2023-12-20T10:34:46;102972.06;;;9.95;80.74
79527;BME280;68974;47.754;-3.364;2023-12-20T10:37:12;102969.69;;;9.98;80.78
79527;BME280;68974;47.754;-3.364;2023-12-20T10:39:38;102972.69;;;10.22;79.48
79527;BME280;68974;47.754;-3.364;2023-12-20T10:42:05;102971.16;;;10.51;79.26
79527;BME280;68974;47.754;-3.364;2023-12-20T10:44:31;102971.19;;;11.05;77.55
79527;BME280;68974;47.754;-3.364;2023-12-20T10:46:56;102970.66;;;11.63;74.90
79527;BME280;68974;47.754;-3.364;2023-12-20T10:49:24;102958.66;;;11.87;73.57
79527;BME280;68974;47.754;-3.364;2023-12-20T10:51:53;102955.94;;;12.10;73.18
79527;BME280;68974;47.754;-3.364;2023-12-20T10:54:19;102936.19;;;12.25;71.32
79527;BME280;68974;47.754;-3.364;2023-12-20T10:56:45;102942.06;;;12.29;71.88
79527;BME280;68974;47.754;-3.364;2023-12-20T10:59:12;102928.75;;;13.00;70.40
79527;BME280;68974;47.754;-3.364;2023-12-20T11:01:40;102921.97;;;13.93;67.10
79527;BME280;68974;47.754;-3.364;2023-12-20T11:04:09;102919.72;;;14.79;63.72
79527;BME280;68974;47.754;-3.364;2023-12-20T11:07:08;102903.00;;;16.34;58.55
79527;BME280;68974;47.754;-3.364;2023-12-20T11:09:44;102899.41;;;17.63;54.63
79527;BME280;68974;47.754;-3.364;2023-12-20T11:12:20;102876.47;;;18.52;51.21
79527;BME280;68974;47.754;-3.364;2023-12-20T11:14:54;102875.75;;;17.96;52.14
79527;BME280;68974;47.754;-3.364;2023-12-20T11:17:22;102873.75;;;17.46;54.03
79527;BME280;68974;47.754;-3.364;2023-12-20T11:22:19;102873.19;;;18.40;52.07
79527;BME280;68974;47.754;-3.364;2023-12-20T11:24:47;102870.28;;;19.35;49.08
79527;BME280;68974;47.754;-3.364;2023-12-20T11:27:13;102865.34;;;19.95;46.89
79527;BME280;68974;47.754;-3.364;2023-12-20T11:29:39;102859.06;;;20.42;46.42
79527;BME280;68974;47.754;-3.364;2023-12-20T11:34:58;102835.00;;;18.71;49.33
79527;BME280;68974;47.754;-3.364;2023-12-20T11:37:50;102849.00;;;18.36;51.13
79527;BME280;68974;47.754;-3.364;2023-12-20T11:40:17;102847.59;;;19.08;49.05
79527;BME280;68974;47.754;-3.364;2023-12-20T11:42:44;102840.44;;;19.35;48.30
79527;BME280;68974;47.754;-3.364;2023-12-20T11:45:15;102832.81;;;19.85;47.54
79527;BME280;68974;47.754;-3.364;2023-12-20T11:47:46;102819.59;;;20.48;45.84
79527;BME280;68974;47.754;-3.364;2023-12-20T11:50:12;102816.38;;;19.55;47.28
79527;BME280;68974;47.754;-3.364;2023-12-20T11:52:37;102808.88;;;20.08;47.06
79527;BME280;68974;47.754;-3.364;2023-12-20T11:55:03;102819.34;;;20.68;45.75
79527;BME280;68974;47.754;-3.364;2023-12-20T11:57:30;102814.75;;;20.35;46.26
79527;BME280;68974;47.754;-3.364;2023-12-20T11:59:55;102816.34;;;19.88;47.00
79527;BME280;68974;47.754;-3.364;2023-12-20T12:02:21;102820.25;;;18.66;49.48
79527;BME280;68974;47.754;-3.364;2023-12-20T12:04:48;102802.88;;;18.14;51.29
79527;BME280;68974;47.754;-3.364;2023-12-20T12:07:14;102795.69;;;17.38;52.79
79527;BME280;68974;47.754;-3.364;2023-12-20T12:09:39;102802.97;;;16.04;57.23
79527;BME280;68974;47.754;-3.364;2023-12-20T12:12:05;102799.06;;;15.31;60.12
79527;BME280;68974;47.754;-3.364;2023-12-20T12:14:31;102817.34;;;14.79;62.37
79527;BME280;68974;47.754;-3.364;2023-12-20T12:16:57;102822.03;;;14.56;65.00
79527;BME280;68974;47.754;-3.364;2023-12-20T12:19:23;102818.13;;;14.14;66.00
79527;BME280;68974;47.754;-3.364;2023-12-20T12:24:38;102811.13;;;13.89;67.90
79527;BME280;68974;47.754;-3.364;2023-12-20T12:27:06;102800.72;;;13.58;68.59
79527;BME280;68974;47.754;-3.364;2023-12-20T12:29:31;102812.31;;;13.27;69.86
79527;BME280;68974;47.754;-3.364;2023-12-20T12:31:57;102808.84;;;12.91;71.28
79527;BME280;68974;47.754;-3.364;2023-12-20T12:34:23;102802.56;;;13.08;71.27
79527;BME280;68974;47.754;-3.364;2023-12-20T12:36:48;102785.56;;;13.27;71.22
79527;BME280;68974;47.754;-3.364;2023-12-20T12:39:17;102773.41;;;13.45;70.02
79527;BME280;68974;47.754;-3.364;2023-12-20T12:41:43;102766.16;;;13.22;69.98
79527;BME280;68974;47.754;-3.364;2023-12-20T12:44:11;102756.84;;;13.12;69.73
79527;BME280;68974;47.754;-3.364;2023-12-20T12:46:37;102755.78;;;13.13;69.79
79527;BME280;68974;47.754;-3.364;2023-12-20T12:49:03;102741.88;;;13.24;69.75
79527;BME280;68974;47.754;-3.364;2023-12-20T12:51:29;102730.03;;;13.24;69.77
79527;BME280;68974;47.754;-3.364;2023-12-20T12:53:55;102740.25;;;12.95;70.81